createdAt,value
2023-03-30T00:08:51.755Z,1.8
2023-03-30T00:15:16.648Z,1.8
2023-03-30T00:18:52.489Z,2.2
2023-03-30T00:28:53.456Z,2.8
2023-03-30T00:38:54.388Z,3.4
2023-03-30T00:49:09.728Z,2.4
2023-03-30T00:58:56.293Z,1.7
2023-03-30T01:08:57.182Z,2.5
2023-03-30T01:13:03.586Z,2.5
2023-03-30T01:16:48.776Z,2.5
2023-03-30T01:18:58.066Z,1.7
2023-03-30T01:28:58.918Z,2.1
2023-03-30T01:38:59.777Z,1.6
2023-03-30T01:47:41.972Z,1.6
2023-03-30T01:49:00.632Z,5.9
2023-03-30T01:59:01.407Z,3.2
2023-03-30T02:08:13.981Z,3.2
2023-03-30T02:19:03.035Z,9
2023-03-30T02:20:21.411Z,9
2023-03-30T02:29:03.814Z,4
2023-03-30T02:39:04.598Z,5
2023-03-30T02:49:05.522Z,2.2
2023-03-30T02:55:20.349Z,2.2
2023-03-30T02:59:06.360Z,3.2
2023-03-30T03:02:52.445Z,3.2
2023-03-30T03:09:07.187Z,2.3
2023-03-30T03:16:35.203Z,2.3
2023-03-30T03:19:09.803Z,2.8
2023-03-30T03:29:08.797Z,1.8
2023-03-30T03:33:20.058Z,1.8
2023-03-30T03:39:09.621Z,1.4
2023-03-30T03:49:10.356Z,1.7
2023-03-30T03:59:11.140Z,1.9
2023-03-30T04:09:11.896Z,2.4
2023-03-30T04:12:48.775Z,2.4
2023-03-30T04:19:12.765Z,2.9
2023-03-30T04:28:48.228Z,2.9
2023-03-30T04:37:06.164Z,2.6
2023-03-30T04:39:14.163Z,3.4
2023-03-30T04:46:55.755Z,3.4
2023-03-30T04:49:14.930Z,2.6
2023-03-30T04:59:15.647Z,2.1
2023-03-30T05:09:16.563Z,2.2
2023-03-30T05:19:17.245Z,4
2023-03-30T05:24:25.986Z,4
2023-03-30T05:29:17.989Z,2.7
2023-03-30T05:36:54.072Z,2.7
2023-03-30T05:38:54.428Z,2.7
2023-03-30T05:48:59.646Z,2
2023-03-30T05:59:20.385Z,1.9
2023-03-30T06:02:45.417Z,1.9
2023-03-30T06:09:21.089Z,2.6
2023-03-30T06:19:40.520Z,3.1
2023-03-30T06:21:14.722Z,3.1
2023-03-30T06:29:22.501Z,2
2023-03-30T06:39:23.261Z,2.1
2023-03-30T06:48:47.532Z,2.1
2023-03-30T06:59:24.745Z,5.2
2023-03-30T07:01:04.813Z,5.2
2023-03-30T07:05:39.989Z,5.2
2023-03-30T07:09:25.467Z,6.3
2023-03-30T07:19:26.116Z,7.9
2023-03-30T07:29:26.868Z,6.6
2023-03-30T07:39:27.599Z,7.7
2023-03-30T07:47:46.426Z,7.7
2023-03-30T07:49:28.244Z,9.2
2023-03-30T07:59:28.970Z,9.9
2023-03-30T08:09:29.608Z,11.6
2023-03-30T08:19:30.495Z,11
2023-03-30T08:29:31.328Z,12.4
2023-03-30T08:31:15.763Z,12.4
2023-03-30T08:39:31.983Z,11.5
2023-03-30T08:49:32.747Z,10.2
2023-03-30T08:54:59.500Z,10.2
2023-03-30T08:59:33.537Z,9.6
2023-03-30T09:09:34.208Z,11.2
2023-03-30T09:19:34.994Z,10.9
2023-03-30T09:29:35.673Z,11.1
2023-03-30T09:36:06.517Z,11.1
2023-03-30T09:39:36.387Z,11.1
2023-03-30T09:50:11.918Z,8.7
2023-03-30T09:58:21.713Z,8.7
2023-03-30T09:59:37.745Z,8.3
2023-03-30T10:04:44.614Z,8.3
2023-03-30T10:08:06.147Z,8.3
2023-03-30T10:09:38.350Z,10.4
2023-03-30T10:19:44.685Z,6.9
2023-03-30T10:23:59.671Z,6.9
2023-03-30T10:25:21.863Z,6.9
2023-03-30T10:29:39.675Z,8.8
2023-03-30T10:35:18.226Z,8.8
2023-03-30T10:39:40.411Z,6.2
2023-03-30T10:46:18.606Z,6.2
2023-03-30T10:49:41.059Z,8.3
2023-03-30T10:54:19.076Z,8.3
2023-03-30T10:59:41.887Z,9.1
2023-03-30T11:07:12.433Z,9.1
2023-03-30T11:09:42.614Z,6.5
2023-03-30T11:19:43.446Z,7.7
2023-03-30T11:28:52.431Z,7.7
2023-03-30T11:37:02.530Z,6.9
2023-03-30T11:39:41.136Z,6.9
2023-03-30T11:49:45.855Z,5.6
2023-03-30T11:52:07.181Z,5.6
2023-03-30T11:53:19.868Z,5.6
2023-03-30T11:55:02.817Z,5.6
2023-03-30T11:56:19.178Z,5.6
2023-03-30T11:57:32.391Z,5.6
2023-03-30T11:59:46.767Z,4.6
2023-03-30T12:03:10.641Z,4.6
2023-03-30T12:05:14.813Z,4.6
2023-03-30T12:07:50.026Z,4.6
2023-03-30T12:09:47.510Z,3.8
2023-03-30T12:14:28.246Z,3.8
2023-03-30T12:17:13.614Z,3.8
2023-03-30T12:19:55.904Z,6.1
2023-03-30T12:30:00.578Z,6.1
2023-03-30T12:30:02.147Z,5.6
2023-03-30T12:39:50.133Z,6
2023-03-30T12:49:51.028Z,6.7
2023-03-30T12:53:47.756Z,6.7
2023-03-30T12:56:40.342Z,6.7
2023-03-30T12:59:51.989Z,4.7
2023-03-30T13:09:53.050Z,4.7
2023-03-30T13:19:54.001Z,6.3
2023-03-30T13:29:55.028Z,2.9
2023-03-30T13:39:56.030Z,2.7
2023-03-30T13:45:42.973Z,2.7
2023-03-30T13:49:57.128Z,4.2
2023-03-30T13:51:46.854Z,4.2
2023-03-30T13:53:16.885Z,4.2
2023-03-30T13:59:58.226Z,6.3
2023-03-30T14:09:59.479Z,4.5
2023-03-30T14:20:00.212Z,4.2
2023-03-30T14:30:01.316Z,5.6
2023-03-30T14:37:04.686Z,5.6
2023-03-30T14:40:02.397Z,4
2023-03-30T14:50:03.490Z,3.7
2023-03-30T15:00:04.746Z,5.4
2023-03-30T15:09:38.330Z,5.4
2023-03-30T15:10:05.660Z,8
2023-03-30T15:20:06.808Z,4.2
2023-03-30T15:30:07.946Z,4.2
2023-03-30T15:40:09.046Z,4.5
2023-03-30T15:50:10.313Z,4.9
2023-03-30T16:00:11.778Z,6.8
2023-03-30T16:10:12.530Z,6
2023-03-30T16:20:13.765Z,5.4
2023-03-30T16:29:15.325Z,5.4
2023-03-30T16:31:04.000Z,4.8
2023-03-30T16:40:16.227Z,4.4
2023-03-30T16:45:33.976Z,4.4
2023-03-30T16:48:30.896Z,4.4
2023-03-30T16:50:17.466Z,5
2023-03-30T17:00:18.594Z,7.6
2023-03-30T17:10:19.755Z,4.6
2023-03-30T17:20:20.902Z,3.2
2023-03-30T17:30:22.072Z,5.8
2023-03-30T17:40:23.290Z,4.8
2023-03-30T17:50:24.547Z,3.8
2023-03-30T18:00:25.768Z,3.5
2023-03-30T18:07:01.807Z,3.5
2023-03-30T18:10:26.934Z,5.6
2023-03-30T18:12:34.799Z,5.6
2023-03-30T18:20:28.101Z,5.7
2023-03-30T18:30:29.268Z,6
2023-03-30T18:40:32.655Z,4.4
2023-03-30T18:49:56.034Z,4.4
2023-03-30T19:00:32.987Z,3.7
2023-03-30T19:10:34.345Z,3.8
2023-03-30T19:15:55.710Z,3.8
2023-03-30T19:20:35.631Z,3.8
2023-03-30T19:30:39.177Z,5.8
2023-03-30T19:40:38.216Z,3.8
2023-03-30T19:50:39.569Z,5.8
2023-03-30T19:54:18.234Z,5.8
2023-03-30T19:56:03.578Z,5.8
2023-03-30T20:00:40.894Z,4.4
2023-03-30T20:10:42.123Z,6
2023-03-30T20:15:45.305Z,6
2023-03-30T20:16:58.510Z,6
2023-03-30T20:20:43.428Z,6.8
2023-03-30T20:30:44.791Z,5.1
2023-03-30T20:34:38.417Z,5.1
2023-03-30T20:40:46.094Z,3.9
2023-03-30T20:50:47.532Z,5.5
2023-03-30T20:59:17.417Z,5.5
2023-03-30T21:00:48.970Z,2.7
2023-03-30T21:02:06.733Z,2.7
2023-03-30T21:10:50.280Z,2.3
2023-03-30T21:19:01.209Z,2.3
2023-03-30T21:20:51.744Z,2.2
2023-03-30T21:28:04.821Z,2.2
2023-03-30T21:30:28.204Z,2.2
2023-03-30T21:40:54.419Z,2.6
2023-03-30T21:44:41.101Z,2.6
2023-03-30T21:50:55.749Z,2.2
2023-03-30T22:01:08.817Z,4.1
2023-03-30T22:10:58.227Z,4.3
2023-03-30T22:18:55.246Z,4.3
2023-03-30T22:20:59.471Z,2.5
2023-03-30T22:31:00.786Z,2.7
2023-03-30T22:41:04.778Z,3.3
2023-03-30T22:51:03.288Z,3.9
2023-03-30T23:01:04.359Z,2.7
2023-03-30T23:11:05.454Z,2.9
2023-03-30T23:18:40.910Z,2.9
2023-03-30T23:21:07.284Z,2.4
2023-03-30T23:25:15.648Z,2.4
2023-03-30T23:28:49.029Z,2.4
2023-03-30T23:31:07.890Z,2.3
2023-03-30T23:35:46.790Z,2.3
2023-03-30T23:41:08.875Z,2.7
2023-03-30T23:51:09.937Z,3
